Time;durP1;ratioP1;P1;durP2;ratioP2;P2;SDS_P1;SDS_P2;PMS_P1;PMS_P2;Temp;Humidity;BMP_temperature;BMP_pressure;BME280_temperature;BME280_humidity;BME280_pressure;Samples;Min_cycle;Max_cycle;Signal;HPM_P1;HPM_P2
2021/11/20 00:02:22;;;;;;;4.47;3.03;;;10.10;99.90;;;;;;5070185;28;20441;-75
2021/11/20 00:04:48;;;;;;;3.90;3.20;;;10.10;99.90;;;;;;5069806;28;20441;-76
2021/11/20 00:07:14;;;;;;;4.23;3.30;;;10.00;99.90;;;;;;5053345;28;20442;-73
2021/11/20 00:09:40;;;;;;;4.17;2.87;;;10.10;99.90;;;;;;5069864;28;20465;-75
2021/11/20 00:12:10;;;;;;;4.33;3.43;;;10.00;99.90;;;;;;5073362;28;20301;-75
2021/11/20 00:14:36;;;;;;;3.97;3.10;;;10.10;99.90;;;;;;5069373;28;20296;-75
2021/11/20 00:17:04;;;;;;;3.63;3.20;;;10.00;99.90;;;;;;5089526;28;20464;-75
2021/11/20 00:19:34;;;;;;;3.27;2.90;;;10.00;99.90;;;;;;5069152;28;20442;-76
2021/11/20 00:22:23;;;;;;;3.80;3.50;;;10.00;99.90;;;;;;5073429;28;20453;-74
2021/11/20 00:24:53;;;;;;;4.40;3.07;;;10.00;99.90;;;;;;5066326;28;20473;-75
2021/11/20 00:27:24;;;;;;;5.03;2.80;;;10.10;99.90;;;;;;5079927;28;20448;-75
2021/11/20 00:30:01;;;;;;;3.10;2.63;;;10.00;99.90;;;;;;5064459;28;20452;-75
2021/11/20 00:32:34;;;;;;;4.43;3.07;;;10.10;99.90;;;;;;5063427;28;20440;-74
2021/11/20 00:35:07;;;;;;;3.83;3.20;;;10.10;99.90;;;;;;5062128;28;20471;-75
2021/11/20 00:37:35;;;;;;;3.73;3.37;;;10.10;99.90;;;;;;5052028;28;20445;-76
2021/11/20 00:40:01;;;;;;;4.13;2.67;;;10.10;99.90;;;;;;5050918;28;20472;-76
2021/11/20 00:42:27;;;;;;;3.50;3.20;;;10.10;99.90;;;;;;5073571;28;20479;-76
2021/11/20 00:44:53;;;;;;;3.77;3.20;;;10.10;99.90;;;;;;5075552;28;20441;-76
2021/11/20 00:47:19;;;;;;;3.07;2.53;;;10.10;99.90;;;;;;5073161;28;20219;-76
2021/11/20 00:49:46;;;;;;;4.70;3.33;;;10.10;99.90;;;;;;5069451;28;20610;-76
2021/11/20 00:52:14;;;;;;;4.40;3.23;;;10.10;99.90;;;;;;5069614;28;20447;-75
2021/11/20 00:54:41;;;;;;;4.90;3.63;;;10.10;99.90;;;;;;5069129;28;20546;-76
2021/11/20 00:57:08;;;;;;;5.40;3.63;;;10.10;99.90;;;;;;5069496;28;20442;-76
2021/11/20 00:59:34;;;;;;;7.87;4.30;;;10.10;99.90;;;;;;5069591;28;20544;-76
2021/11/20 01:02:02;;;;;;;6.50;4.83;;;10.10;99.90;;;;;;5071395;28;20528;-77
2021/11/20 01:04:30;;;;;;;6.20;4.40;;;10.10;99.90;;;;;;5069417;28;20394;-77
2021/11/20 01:06:57;;;;;;;10.80;6.07;;;10.10;99.90;;;;;;5077127;28;20445;-76
2021/11/20 01:09:29;;;;;;;23.87;9.70;;;10.10;99.90;;;;;;5052697;28;20967;-76
2021/11/20 01:12:04;;;;;;;19.00;8.10;;;10.10;99.90;;;;;;5068855;28;20441;-76
2021/11/20 01:14:32;;;;;;;12.30;5.87;;;10.10;99.90;;;;;;5072033;28;20529;-76
2021/11/20 01:16:59;;;;;;;7.27;5.23;;;10.10;99.90;;;;;;5069156;28;20477;-76
2021/11/20 01:19:27;;;;;;;13.47;4.87;;;10.10;99.90;;;;;;5069289;28;20481;-76
2021/11/20 01:21:57;;;;;;;6.30;5.10;;;10.10;99.90;;;;;;5076627;28;20460;-77
2021/11/20 01:24:24;;;;;;;6.60;4.90;;;10.10;99.90;;;;;;5066024;28;20450;-77
2021/11/20 01:26:53;;;;;;;10.80;6.47;;;10.10;99.90;;;;;;5066206;28;20465;-75
2021/11/20 01:29:20;;;;;;;8.33;5.20;;;10.10;99.90;;;;;;5083757;28;20459;-76
2021/11/20 01:31:49;;;;;;;10.57;6.53;;;10.10;99.90;;;;;;5068913;28;20528;-76
2021/11/20 01:34:16;;;;;;;7.67;4.73;;;10.10;99.90;;;;;;5078988;28;20436;-76
2021/11/20 01:36:46;;;;;;;7.67;5.10;;;10.10;99.90;;;;;;5051414;28;20458;-76
2021/11/20 01:39:16;;;;;;;6.77;4.87;;;10.10;99.90;;;;;;5068790;28;20440;-77
2021/11/20 01:42:20;;;;;;;8.93;5.47;;;10.10;99.90;;;;;;5076457;28;20990;-76
2021/11/20 01:45:36;;;;;;;7.60;5.10;;;10.10;99.90;;;;;;5081144;28;20446;-77
2021/11/20 01:48:27;;;;;;;6.37;4.23;;;10.10;99.90;;;;;;5070146;28;20496;-76
2021/11/20 01:51:19;;;;;;;8.33;4.77;;;10.10;99.90;;;;;;5076028;28;20524;-77
2021/11/20 01:53:54;;;;;;;9.47;4.70;;;10.10;99.90;;;;;;5063516;28;20513;-76
2021/11/20 01:56:45;;;;;;;5.00;3.70;;;10.10;99.90;;;;;;5052055;28;20559;-77
2021/11/20 01:59:23;;;;;;;8.40;5.13;;;10.10;99.90;;;;;;5078469;28;20455;-76
2021/11/20 02:02:17;;;;;;;8.60;5.00;;;10.10;99.90;;;;;;5074899;28;20950;-77
2021/11/20 02:05:00;;;;;;;8.30;4.87;;;10.10;99.90;;;;;;5070589;28;20538;-76
2021/11/20 02:07:55;;;;;;;7.40;4.77;;;10.10;99.90;;;;;;5054784;28;20517;-76
2021/11/20 02:10:42;;;;;;;8.50;5.40;;;10.10;99.90;;;;;;5048723;28;20438;-74
2021/11/20 02:13:13;;;;;;;5.90;4.43;;;10.10;99.90;;;;;;5049601;28;20454;-76
2021/11/20 02:16:11;;;;;;;7.00;4.13;;;10.10;99.90;;;;;;5054673;28;20483;-74
2021/11/20 02:18:42;;;;;;;8.00;5.40;;;10.10;99.90;;;;;;5032355;28;20815;-76
2021/11/20 02:21:25;;;;;;;8.20;5.27;;;10.10;99.90;;;;;;5052682;28;20522;-76
2021/11/20 02:23:56;;;;;;;6.77;4.60;;;10.10;99.90;;;;;;5038111;28;20429;-77
2021/11/20 02:26:25;;;;;;;6.70;5.27;;;10.10;99.90;;;;;;5052770;28;20480;-76
2021/11/20 02:28:55;;;;;;;7.20;5.10;;;10.10;99.90;;;;;;5052250;28;20986;-76
2021/11/20 02:34:20;;;;;;;7.80;5.70;;;10.10;99.90;;;;;;5259743;23;20475;-74
2021/11/20 02:36:47;;;;;;;14.37;8.17;;;10.10;99.90;;;;;;4972287;28;20519;-75
2021/11/20 02:39:24;;;;;;;9.50;6.47;;;10.10;99.90;;;;;;4974570;28;20460;-76
2021/11/20 02:41:55;;;;;;;10.00;6.13;;;10.10;99.90;;;;;;4973550;28;20550;-75
2021/11/20 02:44:25;;;;;;;9.17;6.00;;;10.10;99.90;;;;;;4991707;28;20535;-74
2021/11/20 02:47:06;;;;;;;9.60;6.00;;;10.10;99.90;;;;;;4988306;28;20452;-74
2021/11/20 02:49:32;;;;;;;12.00;6.57;;;10.10;99.90;;;;;;5004591;28;20459;-74
2021/11/20 02:52:18;;;;;;;8.30;5.67;;;10.10;99.90;;;;;;5018470;28;20457;-76
2021/11/20 02:54:47;;;;;;;6.87;4.90;;;10.10;99.90;;;;;;5020686;28;20546;-75
2021/11/20 02:57:40;;;;;;;6.60;5.40;;;10.10;99.90;;;;;;5001624;28;20546;-74
2021/11/20 03:00:13;;;;;;;8.93;5.40;;;10.10;99.90;;;;;;4989299;28;20472;-75
2021/11/20 03:02:42;;;;;;;9.90;5.67;;;10.10;99.90;;;;;;4994762;28;20452;-75
2021/11/20 03:05:10;;;;;;;7.50;5.60;;;10.10;99.90;;;;;;5012246;28;20517;-74
2021/11/20 03:07:36;;;;;;;7.97;5.13;;;10.10;99.90;;;;;;5012045;28;20478;-74
2021/11/20 03:10:04;;;;;;;7.53;5.20;;;10.10;99.90;;;;;;4999359;28;20477;-76
2021/11/20 03:12:30;;;;;;;6.87;5.57;;;10.10;99.90;;;;;;5021796;28;20279;-74
2021/11/20 03:14:59;;;;;;;6.17;4.63;;;10.10;99.90;;;;;;5000639;28;20498;-75
2021/11/20 03:17:30;;;;;;;7.83;5.00;;;10.10;99.90;;;;;;5022171;28;20456;-74
2021/11/20 03:19:58;;;;;;;6.50;4.97;;;10.10;99.90;;;;;;5011203;28;20451;-75
2021/11/20 03:22:26;;;;;;;6.77;4.90;;;10.10;99.90;;;;;;5011604;28;20455;-74
2021/11/20 03:24:52;;;;;;;6.03;4.63;;;10.10;99.90;;;;;;4995087;28;20486;-74
2021/11/20 03:27:19;;;;;;;6.10;5.13;;;10.10;99.90;;;;;;5008068;28;20459;-75
2021/11/20 03:29:47;;;;;;;6.87;5.30;;;10.00;99.90;;;;;;4999625;28;20449;-75
2021/11/20 03:32:14;;;;;;;6.60;5.30;;;10.00;99.90;;;;;;4991637;28;20456;-75
2021/11/20 03:34:41;;;;;;;7.73;5.40;;;10.10;99.90;;;;;;4991170;28;20583;-74
2021/11/20 03:37:09;;;;;;;8.40;6.63;;;10.00;99.90;;;;;;4994632;28;20456;-74
2021/11/20 03:39:40;;;;;;;7.90;5.30;;;10.00;99.90;;;;;;5002076;28;20451;-75
2021/11/20 03:42:08;;;;;;;7.07;6.23;;;10.00;99.90;;;;;;4996590;28;20455;-75
2021/11/20 03:44:38;;;;;;;10.07;5.80;;;10.00;99.90;;;;;;5010988;28;20459;-74
2021/11/20 03:47:05;;;;;;;7.80;5.53;;;10.00;99.90;;;;;;5013858;28;20458;-74
2021/11/20 03:49:37;;;;;;;8.53;5.70;;;10.00;99.90;;;;;;4995341;28;20462;-73
2021/11/20 03:52:04;;;;;;;9.20;6.83;;;10.00;99.90;;;;;;5006974;28;20544;-75
2021/11/20 03:54:30;;;;;;;8.67;6.30;;;10.00;99.90;;;;;;4993902;28;20452;-74
2021/11/20 03:56:56;;;;;;;10.23;6.23;;;10.00;99.90;;;;;;5010683;28;20506;-74
2021/11/20 03:59:22;;;;;;;8.93;6.97;;;10.00;99.90;;;;;;5013624;28;20537;-74
2021/11/20 04:01:49;;;;;;;10.97;6.73;;;10.00;99.90;;;;;;5013544;28;20284;-74
2021/11/20 04:04:18;;;;;;;9.67;6.87;;;10.00;99.90;;;;;;5011213;28;20501;-74
2021/11/20 04:06:45;;;;;;;9.80;6.90;;;10.00;99.90;;;;;;5026822;28;20448;-75
2021/11/20 04:09:14;;;;;;;9.17;6.40;;;10.00;99.90;;;;;;5012464;28;21043;-74
2021/11/20 04:11:46;;;;;;;9.50;6.47;;;10.00;99.90;;;;;;5009886;28;20466;-74
2021/11/20 04:14:13;;;;;;;11.43;6.70;;;10.00;99.90;;;;;;4994249;28;20459;-74
2021/11/20 04:16:42;;;;;;;9.63;7.17;;;10.00;99.90;;;;;;4992404;28;20483;-74
2021/11/20 04:19:08;;;;;;;10.87;6.23;;;10.00;99.90;;;;;;5010761;28;20451;-74
2021/11/20 04:21:34;;;;;;;10.80;7.20;;;10.00;99.90;;;;;;5010435;28;20216;-75
2021/11/20 04:24:01;;;;;;;9.13;6.37;;;10.00;99.90;;;;;;5004845;28;20461;-75
2021/11/20 04:26:46;;;;;;;12.40;7.00;;;10.00;99.90;;;;;;5038378;28;20454;-75
2021/11/20 04:29:14;;;;;;;8.40;5.77;;;10.00;99.90;;;;;;5012638;28;20447;-74
2021/11/20 04:31:41;;;;;;;11.17;6.83;;;10.00;99.90;;;;;;5013563;28;20453;-73
2021/11/20 04:34:06;;;;;;;9.40;5.60;;;10.00;99.90;;;;;;5013968;28;20511;-74
2021/11/20 04:36:33;;;;;;;7.80;6.17;;;10.00;99.90;;;;;;5013656;28;20482;-77
2021/11/20 04:38:59;;;;;;;6.83;5.63;;;10.00;99.90;;;;;;5013119;28;20273;-74
2021/11/20 04:41:26;;;;;;;8.77;5.60;;;10.00;99.90;;;;;;5020902;28;20459;-74
2021/11/20 04:43:52;;;;;;;7.97;5.43;;;9.90;99.90;;;;;;4993052;28;20451;-75
2021/11/20 04:46:20;;;;;;;7.37;5.60;;;9.90;99.90;;;;;;5008999;28;20455;-74
2021/11/20 04:48:47;;;;;;;8.73;6.23;;;9.90;99.90;;;;;;5002755;28;20833;-75
2021/11/20 04:51:13;;;;;;;7.43;6.37;;;9.90;99.90;;;;;;5010663;28;20501;-75
2021/11/20 04:53:42;;;;;;;10.40;7.20;;;10.00;99.90;;;;;;4993555;28;20230;-74
2021/11/20 04:56:10;;;;;;;10.00;6.93;;;10.00;99.90;;;;;;4992744;28;20526;-76
2021/11/20 04:58:37;;;;;;;9.20;6.67;;;10.00;99.90;;;;;;4997143;28;20460;-73
2021/11/20 05:01:06;;;;;;;9.53;7.30;;;9.90;99.90;;;;;;5007263;28;20455;-76
2021/11/20 05:03:38;;;;;;;10.90;6.37;;;9.90;99.90;;;;;;5010005;28;20459;-75
2021/11/20 05:06:04;;;;;;;10.67;7.30;;;9.90;99.90;;;;;;5013008;28;20442;-74
2021/11/20 05:08:30;;;;;;;10.73;6.80;;;10.00;99.90;;;;;;5004105;28;20530;-76
2021/11/20 05:11:03;;;;;;;11.00;7.17;;;9.90;99.90;;;;;;5009952;28;20462;-73
2021/11/20 05:13:39;;;;;;;10.93;6.30;;;9.90;99.90;;;;;;5011299;28;20457;-75
2021/11/20 05:16:06;;;;;;;11.23;6.57;;;9.90;99.90;;;;;;5009803;28;20487;-74
2021/11/20 05:18:32;;;;;;;11.10;7.50;;;9.90;99.90;;;;;;5014430;28;20487;-76
2021/11/20 05:21:06;;;;;;;10.70;6.83;;;9.90;99.90;;;;;;5009572;28;20458;-75
2021/11/20 05:23:35;;;;;;;9.53;6.43;;;9.90;99.90;;;;;;4993720;28;20471;-74
2021/11/20 05:26:02;;;;;;;11.03;7.63;;;9.90;99.90;;;;;;5009649;28;20454;-74
2021/11/20 05:28:28;;;;;;;12.80;6.93;;;9.90;99.90;;;;;;4993741;28;20478;-75
2021/11/20 05:30:59;;;;;;;13.43;7.90;;;9.90;99.90;;;;;;4993177;28;20964;-74
2021/11/20 05:33:33;;;;;;;14.30;7.87;;;9.90;99.90;;;;;;4996509;28;20498;-74
2021/11/20 05:36:01;;;;;;;15.77;8.83;;;9.90;99.90;;;;;;5016604;28;20487;-74
2021/11/20 05:38:27;;;;;;;11.23;8.00;;;9.90;99.90;;;;;;5016441;28;20981;-74
2021/11/20 05:40:54;;;;;;;14.50;8.30;;;9.90;99.90;;;;;;5015292;28;20482;-75
2021/11/20 05:43:24;;;;;;;13.97;8.90;;;9.90;99.90;;;;;;5021053;28;20446;-74
2021/11/20 05:45:56;;;;;;;12.63;7.57;;;9.90;99.90;;;;;;5027966;28;20447;-74
2021/11/20 05:48:21;;;;;;;11.47;7.73;;;9.90;99.90;;;;;;5015818;28;20538;-74
2021/11/20 05:50:48;;;;;;;11.70;7.87;;;9.90;99.90;;;;;;4996057;28;20523;-75
2021/11/20 05:53:21;;;;;;;10.23;7.50;;;9.90;99.90;;;;;;5017177;28;20466;-74
2021/11/20 05:55:50;;;;;;;12.50;7.80;;;9.90;99.90;;;;;;5031049;28;20466;-75
2021/11/20 05:58:17;;;;;;;10.00;6.27;;;9.90;99.90;;;;;;5016561;28;20447;-74
2021/11/20 06:00:48;;;;;;;11.77;7.63;;;9.80;99.90;;;;;;5014123;28;20542;-75
2021/11/20 06:03:17;;;;;;;12.70;8.20;;;9.90;99.90;;;;;;5011085;28;20537;-75
2021/11/20 06:05:50;;;;;;;12.67;8.40;;;9.90;99.90;;;;;;5016535;28;20461;-74
2021/11/20 06:08:17;;;;;;;11.17;7.60;;;9.90;99.90;;;;;;5002147;28;20454;-75
2021/11/20 06:10:44;;;;;;;14.37;8.53;;;9.80;99.90;;;;;;4999782;28;20466;-74
2021/11/20 06:13:14;;;;;;;12.73;7.63;;;9.80;99.90;;;;;;4996498;28;20444;-74
2021/11/20 06:15:47;;;;;;;10.80;8.70;;;9.80;99.90;;;;;;5012477;28;20471;-75
2021/11/20 06:18:14;;;;;;;10.30;7.63;;;9.80;99.90;;;;;;5008244;28;20555;-76
2021/11/20 06:20:42;;;;;;;12.47;8.73;;;9.80;99.90;;;;;;5018895;28;20451;-73
2021/11/20 06:23:10;;;;;;;14.77;8.73;;;9.80;99.90;;;;;;5002762;28;20454;-74
2021/11/20 06:25:36;;;;;;;11.20;7.60;;;9.80;99.90;;;;;;5013879;28;20474;-74
2021/11/20 06:28:03;;;;;;;14.87;8.57;;;9.80;99.90;;;;;;5000059;28;20591;-75
2021/11/20 06:30:30;;;;;;;15.17;9.90;;;9.80;99.90;;;;;;4999821;28;20447;-75
2021/11/20 06:32:56;;;;;;;14.57;9.00;;;9.80;99.90;;;;;;5015003;28;20958;-74
2021/11/20 06:35:41;;;;;;;13.47;8.63;;;9.80;99.90;;;;;;5017587;28;20478;-75
2021/11/20 06:38:12;;;;;;;15.23;9.40;;;9.80;99.90;;;;;;5015391;28;20454;-75
2021/11/20 06:40:44;;;;;;;12.77;8.73;;;9.80;99.90;;;;;;5000211;28;20454;-74
2021/11/20 06:43:13;;;;;;;14.17;9.80;;;9.80;99.90;;;;;;5021474;28;20311;-74
2021/11/20 06:45:44;;;;;;;18.23;9.70;;;9.80;99.90;;;;;;5025964;28;20460;-75
2021/11/20 06:48:10;;;;;;;15.97;10.33;;;9.80;99.90;;;;;;5013703;28;20482;-76
2021/11/20 06:50:38;;;;;;;17.30;9.63;;;9.80;99.90;;;;;;5012153;28;20451;-74
2021/11/20 06:53:29;;;;;;;17.83;10.57;;;9.80;99.90;;;;;;5004006;28;20451;-72
2021/11/20 06:56:16;;;;;;;15.07;10.30;;;9.80;99.90;;;;;;5029589;28;20486;-76
2021/11/20 07:01:37;;;;;;;16.97;10.50;;;9.70;99.90;;;;;;5011785;28;20531;-75
2021/11/20 07:04:08;;;;;;;16.63;10.73;;;9.80;99.90;;;;;;5012192;28;20609;-74
2021/11/20 07:06:55;;;;;;;18.20;10.77;;;9.70;99.90;;;;;;5012062;28;20466;-74
2021/11/20 07:09:22;;;;;;;17.13;11.20;;;9.80;99.90;;;;;;5012313;28;20976;-75
2021/11/20 07:11:49;;;;;;;19.10;11.30;;;9.70;99.90;;;;;;5006653;28;20493;-75
2021/11/20 07:14:15;;;;;;;14.30;10.17;;;9.70;99.90;;;;;;5030175;28;20533;-76
2021/11/20 07:16:43;;;;;;;18.70;10.07;;;9.70;99.90;;;;;;5027186;28;20475;-74
2021/11/20 07:19:11;;;;;;;15.97;10.40;;;9.70;99.90;;;;;;5010173;28;20475;-74
2021/11/20 07:21:55;;;;;;;20.07;11.30;;;9.70;99.90;;;;;;5023192;28;25824;-74
2021/11/20 07:24:36;;;;;;;23.23;11.73;;;9.70;99.90;;;;;;5036556;28;20472;-74
2021/11/20 07:27:05;;;;;;;22.03;12.83;;;9.70;99.90;;;;;;4995823;28;20470;-75
2021/11/20 07:29:31;;;;;;;26.20;13.83;;;9.70;99.90;;;;;;5011869;28;20448;-74
2021/11/20 07:32:01;;;;;;;24.07;13.13;;;9.70;99.90;;;;;;5011437;28;20226;-75
2021/11/20 07:34:27;;;;;;;23.57;12.07;;;9.70;99.90;;;;;;5018695;28;20464;-74
2021/11/20 07:36:55;;;;;;;25.33;13.87;;;9.70;99.90;;;;;;5013876;28;20467;-74
2021/11/20 07:39:21;;;;;;;36.37;16.00;;;9.70;99.90;;;;;;5011839;28;20463;-75
2021/11/20 07:41:47;;;;;;;29.27;17.47;;;9.70;99.90;;;;;;5011222;28;20451;-72
2021/11/20 07:44:17;;;;;;;28.20;16.40;;;9.70;99.90;;;;;;5018555;28;20239;-75
2021/11/20 07:46:43;;;;;;;28.00;16.20;;;9.70;99.90;;;;;;4990997;28;20456;-74
2021/11/20 07:49:10;;;;;;;24.70;14.37;;;9.70;99.90;;;;;;4992216;28;20225;-74
2021/11/20 07:51:37;;;;;;;22.93;12.67;;;9.70;99.90;;;;;;5021058;28;20458;-74
2021/11/20 07:54:06;;;;;;;24.77;14.87;;;9.70;99.90;;;;;;5000101;28;21066;-74
2021/11/20 07:56:41;;;;;;;30.07;19.57;;;9.70;99.90;;;;;;4992603;28;20499;-77
2021/11/20 07:59:14;;;;;;;26.23;19.10;;;9.70;99.90;;;;;;5021971;28;20455;-74
2021/11/20 08:01:41;;;;;;;28.33;16.67;;;9.70;99.90;;;;;;5031013;28;20470;-74
2021/11/20 08:04:07;;;;;;;22.03;13.53;;;9.70;99.90;;;;;;5015840;28;20629;-74
2021/11/20 08:06:46;;;;;;;23.33;13.10;;;9.70;99.90;;;;;;4995453;28;20452;-75
2021/11/20 08:09:26;;;;;;;21.07;14.10;;;9.70;99.90;;;;;;5017532;28;20499;-75
2021/11/20 08:11:59;;;;;;;19.07;12.93;;;9.70;99.90;;;;;;5011299;28;20549;-75
2021/11/20 08:14:45;;;;;;;19.30;10.80;;;9.70;99.90;;;;;;5027839;28;20609;-74
2021/11/20 08:17:37;;;;;;;18.23;10.60;;;9.70;99.90;;;;;;5020957;28;20491;-74
2021/11/20 08:20:24;;;;;;;14.30;9.80;;;9.70;99.90;;;;;;5013565;28;20455;-75
2021/11/20 08:23:19;;;;;;;15.93;9.50;;;9.70;99.90;;;;;;5010844;28;20455;-77
2021/11/20 08:25:47;;;;;;;19.97;11.70;;;9.70;99.90;;;;;;4993618;28;20447;-74
2021/11/20 08:28:17;;;;;;;22.80;12.40;;;9.70;99.90;;;;;;5010628;28;20270;-75
2021/11/20 08:30:43;;;;;;;21.37;12.20;;;9.70;99.90;;;;;;5020581;28;20443;-74
2021/11/20 08:33:11;;;;;;;18.50;11.20;;;9.70;99.90;;;;;;5030347;28;20821;-75
2021/11/20 08:35:41;;;;;;;18.30;11.70;;;9.70;99.90;;;;;;4989026;28;21019;-74
2021/11/20 08:38:18;;;;;;;19.87;11.50;;;9.70;99.90;;;;;;5013128;28;20805;-75
2021/11/20 08:40:53;;;;;;;19.53;11.20;;;9.70;99.90;;;;;;4994467;28;20498;-74
2021/11/20 08:43:20;;;;;;;19.37;11.67;;;9.70;99.90;;;;;;5000975;28;20553;-74
2021/11/20 08:45:50;;;;;;;18.50;10.10;;;9.70;99.90;;;;;;5025452;28;20514;-75
2021/11/20 08:48:19;;;;;;;18.47;11.10;;;9.70;99.90;;;;;;5018765;28;20518;-75
2021/11/20 08:50:53;;;;;;;19.70;11.43;;;9.70;99.90;;;;;;4993192;28;20451;-74
2021/11/20 08:53:20;;;;;;;19.67;12.23;;;9.70;99.90;;;;;;5016740;28;20459;-74
2021/11/20 08:55:46;;;;;;;18.30;10.20;;;9.70;99.90;;;;;;5004124;28;20463;-74
2021/11/20 08:58:32;;;;;;;21.13;11.80;;;9.70;99.90;;;;;;5011877;28;20458;-75
2021/11/20 09:01:22;;;;;;;20.23;11.17;;;9.70;99.90;;;;;;4989419;28;20444;-74
2021/11/20 09:04:13;;;;;;;22.03;11.40;;;9.70;99.90;;;;;;4989144;28;20467;-75
2021/11/20 09:07:06;;;;;;;19.17;11.37;;;9.70;99.90;;;;;;5001007;28;20451;-75
2021/11/20 09:09:52;;;;;;;19.30;12.00;;;9.70;99.90;;;;;;4987253;28;20865;-74
2021/11/20 09:12:25;;;;;;;20.80;11.87;;;9.70;99.90;;;;;;4992044;28;20509;-75
2021/11/20 09:15:05;;;;;;;22.73;12.33;;;9.80;99.90;;;;;;5002719;28;20459;-75
2021/11/20 09:17:37;;;;;;;22.67;13.50;;;9.80;99.90;;;;;;4991846;28;20455;-74
2021/11/20 09:20:05;;;;;;;28.47;15.70;;;9.80;99.90;;;;;;5005057;28;20445;-74
2021/11/20 09:22:31;;;;;;;26.03;12.83;;;9.80;99.90;;;;;;5012781;28;20208;-74
2021/11/20 09:25:15;;;;;;;20.37;13.10;;;9.80;99.90;;;;;;5018952;28;20446;-74
2021/11/20 09:27:47;;;;;;;23.50;12.47;;;9.80;99.90;;;;;;5008216;28;20457;-75
2021/11/20 09:30:27;;;;;;;21.27;12.13;;;9.80;99.90;;;;;;5003288;28;20439;-75
2021/11/20 09:32:53;;;;;;;22.10;12.70;;;9.80;99.90;;;;;;5021603;28;20530;-75
2021/11/20 09:35:28;;;;;;;20.37;12.00;;;9.90;99.90;;;;;;5012386;28;20474;-75
2021/11/20 09:38:02;;;;;;;18.50;11.03;;;9.90;99.90;;;;;;5002149;28;20451;-74
2021/11/20 09:40:30;;;;;;;16.60;10.87;;;9.90;99.90;;;;;;5022069;28;20451;-74
2021/11/20 09:43:01;;;;;;;16.93;11.33;;;9.90;99.90;;;;;;5002228;28;20980;-75
2021/11/20 09:45:34;;;;;;;16.93;11.73;;;9.90;99.90;;;;;;5016314;28;20459;-75
2021/11/20 09:48:16;;;;;;;18.60;10.50;;;9.90;99.90;;;;;;5023647;28;20466;-74
2021/11/20 09:50:53;;;;;;;20.37;11.77;;;9.90;99.90;;;;;;5012271;28;20883;-76
2021/11/20 09:53:20;;;;;;;21.43;11.57;;;9.90;99.90;;;;;;5012686;28;20455;-75
2021/11/20 09:55:51;;;;;;;16.70;10.30;;;9.90;99.90;;;;;;5011065;28;21020;-73
2021/11/20 09:58:39;;;;;;;18.30;10.80;;;9.90;99.90;;;;;;5014897;28;20459;-74
2021/11/20 10:01:20;;;;;;;16.23;10.37;;;10.00;99.90;;;;;;4995696;28;20443;-77
2021/11/20 10:03:46;;;;;;;18.30;11.00;;;10.00;99.90;;;;;;5029553;28;20996;-74
2021/11/20 10:06:27;;;;;;;18.20;10.60;;;10.00;99.90;;;;;;5028700;28;20454;-75
2021/11/20 10:09:12;;;;;;;20.10;11.50;;;10.00;99.90;;;;;;4995343;28;20304;-74
2021/11/20 10:11:48;;;;;;;23.10;11.20;;;10.00;99.90;;;;;;5005700;28;20471;-74
2021/11/20 10:14:27;;;;;;;19.00;11.33;;;10.00;99.90;;;;;;5011412;28;20454;-75
2021/11/20 10:16:57;;;;;;;16.33;11.10;;;10.10;99.90;;;;;;5003773;28;20524;-74
2021/11/20 10:19:25;;;;;;;15.27;10.43;;;10.10;99.90;;;;;;5024964;28;20466;-75
2021/11/20 10:22:29;;;;;;;18.50;11.17;;;10.10;99.90;;;;;;5015213;28;20495;-74
2021/11/20 10:25:00;;;;;;;22.10;11.03;;;10.10;99.90;;;;;;5015008;28;20995;-75
2021/11/20 10:28:00;;;;;;;18.93;10.83;;;10.10;99.90;;;;;;5012901;28;20482;-74
2021/11/20 10:30:29;;;;;;;18.17;11.67;;;10.20;99.90;;;;;;5013116;28;20453;-74
2021/11/20 10:33:00;;;;;;;19.37;10.97;;;10.20;99.90;;;;;;5029797;28;20998;-74
2021/11/20 10:35:38;;;;;;;17.80;10.80;;;10.20;99.90;;;;;;5036798;28;20466;-75
2021/11/20 10:38:20;;;;;;;18.27;10.00;;;10.20;99.90;;;;;;4979236;28;20452;-74
2021/11/20 10:40:52;;;;;;;16.53;10.00;;;10.20;99.90;;;;;;4984917;28;20456;-75
2021/11/20 10:43:33;;;;;;;17.40;10.23;;;10.30;99.90;;;;;;4995078;28;20987;-74
2021/11/20 10:46:17;;;;;;;19.07;11.37;;;10.30;99.90;;;;;;5011453;28;20439;-74
2021/11/20 10:49:08;;;;;;;22.67;10.67;;;10.30;99.90;;;;;;5031399;28;20482;-75
2021/11/20 10:51:46;;;;;;;18.40;11.47;;;10.30;99.90;;;;;;5014646;28;21002;-75
2021/11/20 10:54:48;;;;;;;19.03;12.00;;;10.30;99.90;;;;;;5019262;28;20477;-75
2021/11/20 10:57:19;;;;;;;18.30;12.10;;;10.40;99.90;;;;;;5031559;28;20493;-74
2021/11/20 11:00:19;;;;;;;24.50;13.83;;;10.40;99.90;;;;;;5032376;28;20509;-74
2021/11/20 11:03:22;;;;;;;27.60;14.40;;;10.40;99.90;;;;;;5031355;28;20462;-75
2021/11/20 11:05:51;;;;;;;27.07;12.83;;;10.40;99.90;;;;;;5005906;28;20438;-75
2021/11/20 11:08:41;;;;;;;29.37;14.10;;;10.50;99.90;;;;;;5016087;28;20450;-77
2021/11/20 11:11:21;;;;;;;22.43;12.60;;;10.50;99.90;;;;;;5018689;28;20442;-75
2021/11/20 11:14:04;;;;;;;21.57;12.50;;;10.50;99.90;;;;;;5012668;28;20454;-75
2021/11/20 11:16:38;;;;;;;21.23;11.63;;;10.50;99.90;;;;;;5002433;28;20880;-75
2021/11/20 11:19:25;;;;;;;20.83;10.77;;;10.60;99.90;;;;;;4999953;28;20479;-75
2021/11/20 11:22:03;;;;;;;21.77;12.10;;;10.60;99.90;;;;;;5012904;28;20944;-75
2021/11/20 11:24:54;;;;;;;20.20;11.27;;;10.70;99.90;;;;;;5018223;28;20457;-75
2021/11/20 11:27:29;;;;;;;22.60;11.53;;;10.70;99.90;;;;;;5012725;28;20451;-75
2021/11/20 11:29:59;;;;;;;20.60;12.23;;;10.70;99.90;;;;;;5026938;28;21053;-76
2021/11/20 11:32:28;;;;;;;18.70;12.53;;;10.70;99.90;;;;;;5027269;28;20473;-77
2021/11/20 11:35:05;;;;;;;20.73;11.77;;;10.80;99.90;;;;;;5005728;28;20504;-75
2021/11/20 11:38:01;;;;;;;22.20;13.50;;;10.80;99.90;;;;;;5013064;28;20457;-75
2021/11/20 11:40:33;;;;;;;20.30;14.57;;;10.80;99.90;;;;;;5017232;28;20470;-75
2021/11/20 11:43:19;;;;;;;24.83;13.90;;;10.90;99.90;;;;;;5027247;28;20822;-75
2021/11/20 11:46:23;;;;;;;20.87;12.30;;;10.90;99.90;;;;;;5032293;28;20443;-75
2021/11/20 11:48:55;;;;;;;18.50;12.50;;;10.90;99.90;;;;;;5021207;28;20474;-75
2021/11/20 11:51:56;;;;;;;20.87;12.03;;;11.00;99.90;;;;;;5034889;28;20446;-75
2021/11/20 11:54:43;;;;;;;21.83;14.50;;;11.00;99.90;;;;;;5029947;28;20490;-74
2021/11/20 11:57:12;;;;;;;20.20;13.13;;;11.00;99.90;;;;;;5016868;28;20510;-75
2021/11/20 12:00:25;;;;;;;23.60;14.60;;;11.00;99.90;;;;;;5015731;28;20504;-73
2021/11/20 12:02:55;;;;;;;22.47;12.93;;;11.00;99.90;;;;;;4996864;28;20461;-75
2021/11/20 12:05:33;;;;;;;32.07;15.40;;;11.10;99.90;;;;;;5014420;28;20518;-75
2021/11/20 12:08:37;;;;;;;20.30;13.80;;;11.10;99.90;;;;;;5002603;28;20439;-75
2021/11/20 12:11:11;;;;;;;19.67;12.50;;;11.10;99.90;;;;;;5017449;28;20470;-76
2021/11/20 12:13:37;;;;;;;24.70;13.53;;;11.10;99.90;;;;;;5004837;28;20466;-74
2021/11/20 12:16:30;;;;;;;24.90;15.47;;;11.10;99.90;;;;;;5017278;28;20500;-74
2021/11/20 12:19:07;;;;;;;18.77;11.60;;;11.10;99.90;;;;;;4989059;28;20460;-75
2021/11/20 12:22:02;;;;;;;22.37;12.70;;;11.20;99.90;;;;;;5008917;28;20463;-74
2021/11/20 12:24:47;;;;;;;20.20;12.97;;;11.20;99.90;;;;;;5009343;28;20468;-75
2021/11/20 12:27:51;;;;;;;21.17;11.50;;;11.20;99.90;;;;;;5025030;28;20452;-75
2021/11/20 12:30:22;;;;;;;26.37;14.27;;;11.20;99.90;;;;;;4950543;28;20952;-75
2021/11/20 12:33:25;;;;;;;26.50;13.90;;;11.20;99.90;;;;;;4934627;28;20488;-77
2021/11/20 12:36:09;;;;;;;17.33;11.20;;;11.20;99.90;;;;;;4993233;28;20501;-76
2021/11/20 12:38:52;;;;;;;19.50;11.90;;;11.20;99.90;;;;;;5030930;28;20526;-75
2021/11/20 12:42:10;;;;;;;27.80;15.67;;;11.30;99.90;;;;;;5011730;28;20459;-75
2021/11/20 12:44:54;;;;;;;24.37;13.23;;;11.30;99.90;;;;;;5009609;28;20493;-73
2021/11/20 12:47:39;;;;;;;20.80;12.37;;;11.30;99.90;;;;;;4990619;28;20464;-75
2021/11/20 12:50:29;;;;;;;15.20;9.47;;;11.30;99.90;;;;;;5005055;28;20447;-75
2021/11/20 12:53:21;;;;;;;14.90;7.80;;;11.30;99.90;;;;;;5024431;28;20499;-76
2021/11/20 12:56:02;;;;;;;13.37;8.47;;;11.30;99.90;;;;;;5018381;28;20466;-75
2021/11/20 12:58:35;;;;;;;13.67;8.73;;;11.30;99.90;;;;;;5022616;28;20438;-75
2021/11/20 13:01:01;;;;;;;14.00;9.30;;;11.30;99.90;;;;;;5020976;28;20546;-75
2021/11/20 13:03:32;;;;;;;12.23;8.17;;;11.30;99.90;;;;;;5026988;28;20982;-76
2021/11/20 13:06:18;;;;;;;14.90;9.90;;;11.30;99.90;;;;;;5020465;28;20444;-75
2021/11/20 13:09:18;;;;;;;10.80;7.60;;;11.30;99.90;;;;;;5018137;28;20501;-74
2021/11/20 13:11:53;;;;;;;14.60;8.67;;;11.30;99.90;;;;;;5035211;28;20454;-74
2021/11/20 13:14:31;;;;;;;15.27;7.67;;;11.30;99.90;;;;;;5011728;28;20451;-77
2021/11/20 13:17:20;;;;;;;12.53;7.60;;;11.30;99.90;;;;;;5020747;28;20459;-75
2021/11/20 13:20:12;;;;;;;15.23;8.97;;;11.30;99.90;;;;;;5024890;28;20470;-76
2021/11/20 13:22:41;;;;;;;15.77;7.43;;;11.30;99.90;;;;;;4999007;28;20478;-75
2021/11/20 13:25:21;;;;;;;10.57;7.43;;;11.30;99.90;;;;;;4999993;28;20820;-74